createdAt,value
2019-02-23T00:00:29.945Z,2.80
2019-02-23T00:02:58.594Z,2.80
2019-02-23T00:05:27.225Z,2.80
2019-02-23T00:07:55.992Z,2.80
2019-02-23T00:10:24.611Z,2.70
2019-02-23T00:12:53.275Z,2.80
2019-02-23T00:15:21.915Z,2.80
2019-02-23T00:17:50.567Z,2.80
2019-02-23T00:20:19.214Z,2.80
2019-02-23T00:22:47.859Z,2.90
2019-02-23T00:25:16.532Z,2.80
2019-02-23T00:27:45.196Z,2.80
2019-02-23T00:30:13.901Z,2.80
2019-02-23T00:32:42.568Z,2.80
2019-02-23T00:35:11.391Z,2.80
2019-02-23T00:37:40.363Z,2.80
2019-02-23T00:40:09.096Z,2.70
2019-02-23T00:42:37.743Z,2.70
2019-02-23T00:45:06.411Z,2.70
2019-02-23T00:47:35.071Z,2.70
2019-02-23T00:50:03.825Z,2.60
2019-02-23T00:52:32.745Z,2.60
2019-02-23T00:55:01.376Z,2.50
2019-02-23T00:57:30.031Z,2.50
2019-02-23T00:59:58.663Z,2.50
2019-02-23T01:02:27.304Z,2.50
2019-02-23T01:04:55.980Z,2.50
2019-02-23T01:07:24.639Z,2.50
2019-02-23T01:09:53.287Z,2.50
2019-02-23T01:12:22.015Z,2.50
2019-02-23T01:14:50.642Z,2.40
2019-02-23T01:17:19.285Z,2.40
2019-02-23T01:19:48.220Z,2.30
2019-02-23T01:22:17.114Z,2.30
2019-02-23T01:24:45.812Z,2.20
2019-02-23T01:27:14.463Z,2.20
2019-02-23T01:30:02.361Z,2.20
2019-02-23T01:32:31.153Z,2.20
2019-02-23T01:35:00.294Z,2.10
2019-02-23T01:37:29.124Z,2.10
2019-02-23T01:39:57.759Z,2.00
2019-02-23T01:42:26.456Z,2.00
2019-02-23T01:44:55.144Z,2.00
2019-02-23T01:47:23.788Z,2.00
2019-02-23T01:49:58.899Z,2.10
2019-02-23T01:52:22.767Z,2.10
2019-02-23T01:54:51.452Z,2.00
2019-02-23T01:57:20.109Z,2.00
2019-02-23T01:59:48.772Z,2.00
2019-02-23T02:02:17.551Z,1.90
2019-02-23T02:04:46.195Z,1.90
2019-02-23T02:07:14.972Z,1.90
2019-02-23T02:09:43.879Z,2.00
2019-02-23T02:12:14.710Z,2.00
2019-02-23T02:14:43.400Z,1.90
2019-02-23T02:17:12.420Z,1.90
2019-02-23T02:19:41.381Z,1.80
2019-02-23T02:22:10.046Z,1.80
2019-02-23T02:24:38.684Z,1.80
2019-02-23T02:27:07.413Z,1.80
2019-02-23T02:29:36.062Z,1.80
2019-02-23T02:32:04.709Z,1.80
2019-02-23T02:34:33.383Z,1.80
2019-02-23T02:37:02.168Z,1.70
2019-02-23T02:39:31.115Z,1.70
2019-02-23T02:42:00.077Z,1.80
2019-02-23T02:44:28.691Z,1.70
2019-02-23T02:46:57.635Z,1.60
2019-02-23T02:49:26.299Z,1.70
2019-02-23T02:51:54.935Z,1.70
2019-02-23T02:54:23.582Z,1.70
2019-02-23T02:56:52.224Z,1.70
2019-02-23T02:59:20.868Z,1.70
2019-02-23T03:01:49.537Z,1.70
2019-02-23T03:04:18.187Z,1.70
2019-02-23T03:06:46.857Z,1.80
2019-02-23T03:09:15.489Z,1.80
2019-02-23T03:11:48.280Z,1.80
2019-02-23T03:14:16.857Z,1.80
2019-02-23T03:16:45.491Z,1.90
2019-02-23T03:19:14.690Z,1.90
2019-02-23T03:21:43.326Z,1.80
2019-02-23T03:24:13.179Z,2.00
2019-02-23T03:26:41.905Z,1.90
2019-02-23T03:29:10.680Z,1.90
2019-02-23T03:31:39.691Z,1.90
2019-02-23T03:34:08.330Z,1.90
2019-02-23T03:36:36.972Z,1.80
2019-02-23T03:39:05.900Z,1.80
2019-02-23T03:41:34.544Z,1.90
2019-02-23T03:44:03.304Z,1.90
2019-02-23T03:46:31.931Z,1.90
2019-02-23T03:49:00.616Z,1.80
2019-02-23T03:51:29.257Z,1.80
2019-02-23T03:53:57.890Z,1.80
2019-02-23T03:56:26.620Z,1.70
2019-02-23T03:58:55.272Z,1.70
2019-02-23T04:01:23.895Z,1.70
2019-02-23T04:03:52.547Z,1.80
2019-02-23T04:06:21.179Z,2.10
2019-02-23T04:08:49.839Z,2.20
2019-02-23T04:11:19.007Z,2.20
2019-02-23T04:13:47.663Z,2.20
2019-02-23T04:16:16.401Z,1.90
2019-02-23T04:18:45.102Z,1.90
2019-02-23T04:21:13.758Z,1.80
2019-02-23T04:23:42.533Z,1.80
2019-02-23T04:26:12.427Z,1.70
2019-02-23T04:28:41.121Z,1.90
2019-02-23T04:31:09.833Z,1.90
2019-02-23T04:33:38.485Z,1.80
2019-02-23T04:36:07.138Z,1.90
2019-02-23T04:38:36.388Z,2.00
2019-02-23T04:41:05.177Z,2.00
2019-02-23T04:43:34.786Z,1.90
2019-02-23T04:46:03.407Z,1.80
2019-02-23T04:48:32.107Z,1.70
2019-02-23T04:51:00.843Z,1.60
2019-02-23T04:53:29.899Z,1.60
2019-02-23T04:55:58.641Z,1.60
2019-02-23T04:58:27.319Z,1.70
2019-02-23T05:00:55.943Z,1.60
2019-02-23T05:03:24.611Z,1.50
2019-02-23T05:05:53.270Z,1.50
2019-02-23T05:08:21.923Z,1.40
2019-02-23T05:10:50.544Z,1.40
2019-02-23T05:13:19.224Z,1.30
2019-02-23T05:15:48.199Z,1.20
2019-02-23T05:18:16.841Z,1.20
2019-02-23T05:20:45.492Z,1.10
2019-02-23T05:23:14.132Z,1.20
2019-02-23T05:25:42.774Z,1.20
2019-02-23T05:28:11.424Z,1.10
2019-02-23T05:30:40.042Z,1.10
2019-02-23T05:33:08.720Z,1.10
2019-02-23T05:35:37.401Z,1.00
2019-02-23T05:38:06.599Z,1.00
2019-02-23T05:40:35.271Z,0.90
2019-02-23T05:43:04.106Z,0.90
2019-02-23T05:45:32.719Z,0.90
2019-02-23T05:48:01.397Z,0.90
2019-02-23T05:50:30.041Z,0.80
2019-02-23T05:52:58.952Z,0.90
2019-02-23T05:55:27.607Z,0.90
2019-02-23T05:57:56.283Z,0.90
2019-02-23T06:00:24.920Z,0.90
2019-02-23T06:02:53.562Z,0.80
2019-02-23T06:05:22.199Z,0.70
2019-02-23T06:07:50.843Z,0.70
2019-02-23T06:10:19.527Z,0.60
2019-02-23T06:12:48.472Z,0.60
2019-02-23T06:15:17.121Z,0.70
2019-02-23T06:17:45.730Z,0.70
2019-02-23T06:20:14.468Z,0.70
2019-02-23T06:22:43.100Z,0.60
2019-02-23T06:25:11.860Z,0.70
2019-02-23T06:27:40.571Z,0.70
2019-02-23T06:30:10.834Z,0.70
2019-02-23T06:32:39.492Z,0.70
2019-02-23T06:35:08.496Z,0.70
2019-02-23T06:37:37.179Z,0.90
2019-02-23T06:40:06.826Z,0.90
2019-02-23T06:42:35.575Z,0.90
2019-02-23T06:45:04.813Z,0.80
2019-02-23T06:47:33.447Z,0.80
2019-02-23T06:50:02.152Z,1.00
2019-02-23T06:52:30.820Z,1.10
2019-02-23T06:54:59.524Z,1.10
2019-02-23T06:57:28.202Z,1.00
2019-02-23T06:59:57.167Z,0.90
2019-02-23T07:02:25.821Z,0.90
2019-02-23T07:04:54.481Z,0.90
2019-02-23T07:07:23.194Z,0.80
2019-02-23T07:09:51.836Z,0.80
2019-02-23T07:12:20.450Z,0.80
2019-02-23T07:14:49.082Z,0.80
2019-02-23T07:17:18.071Z,0.80
2019-02-23T07:19:46.759Z,0.70
2019-02-23T07:22:16.035Z,0.70
2019-02-23T07:24:44.735Z,0.80
2019-02-23T07:27:13.351Z,0.80
2019-02-23T07:29:42.008Z,0.80
2019-02-23T07:32:10.670Z,0.80
2019-02-23T07:34:39.337Z,0.90
2019-02-23T07:37:07.959Z,1.00
2019-02-23T07:39:36.900Z,1.10
2019-02-23T07:42:05.535Z,1.20
2019-02-23T07:44:34.510Z,1.30
2019-02-23T07:47:03.156Z,1.20
2019-02-23T07:49:31.771Z,1.10
2019-02-23T07:52:00.673Z,1.20
2019-02-23T07:54:29.326Z,1.20
2019-02-23T07:56:57.951Z,1.30
2019-02-23T07:59:26.632Z,1.30
2019-02-23T08:01:55.263Z,1.40
2019-02-23T08:04:23.881Z,1.50
2019-02-23T08:06:52.543Z,1.50
2019-02-23T08:09:21.203Z,1.50
2019-02-23T08:11:49.923Z,1.60
2019-02-23T08:14:18.557Z,1.60
2019-02-23T08:16:47.292Z,1.70
2019-02-23T08:19:15.938Z,1.70
2019-02-23T08:21:44.837Z,1.90
2019-02-23T08:24:13.476Z,2.00
2019-02-23T08:26:42.126Z,2.10
2019-02-23T08:29:10.760Z,2.20
2019-02-23T08:31:39.430Z,2.30
2019-02-23T08:34:08.042Z,2.30
2019-02-23T08:36:36.689Z,2.30
2019-02-23T08:39:06.344Z,2.40
2019-02-23T08:41:35.011Z,2.50
2019-02-23T08:44:03.639Z,2.50
2019-02-23T08:46:32.316Z,2.50
2019-02-23T08:49:01.287Z,2.70
2019-02-23T08:51:29.961Z,2.80
2019-02-23T08:53:58.610Z,2.90
2019-02-23T08:56:27.231Z,2.90
2019-02-23T08:58:55.846Z,3.00
2019-02-23T09:01:24.512Z,3.10
2019-02-23T09:03:53.130Z,3.10
2019-02-23T09:06:21.779Z,3.10
2019-02-23T09:08:50.439Z,3.20
2019-02-23T09:11:19.077Z,3.30
2019-02-23T09:13:47.710Z,3.30
2019-02-23T09:16:16.397Z,3.30
2019-02-23T09:18:45.035Z,3.40
2019-02-23T09:21:13.688Z,3.40
2019-02-23T09:23:42.531Z,3.40
2019-02-23T09:26:11.219Z,3.40
2019-02-23T09:28:39.870Z,3.60
2019-02-23T09:31:08.564Z,3.60
2019-02-23T09:33:37.268Z,3.70
2019-02-23T09:36:05.925Z,3.80
2019-02-23T09:38:34.588Z,4.00
2019-02-23T09:41:03.259Z,4.10
2019-02-23T09:43:31.910Z,4.10
2019-02-23T09:46:00.549Z,4.20
2019-02-23T09:48:29.183Z,4.20
2019-02-23T09:50:57.840Z,4.30
2019-02-23T09:53:26.485Z,4.40
2019-02-23T09:55:55.207Z,4.40
2019-02-23T09:58:23.908Z,4.20
2019-02-23T10:00:52.574Z,4.40
2019-02-23T10:03:21.253Z,4.50
2019-02-23T10:05:49.934Z,4.60
2019-02-23T10:08:18.573Z,4.50
2019-02-23T10:10:47.219Z,4.60
2019-02-23T10:13:15.833Z,4.60
2019-02-23T10:15:44.483Z,4.70
2019-02-23T10:18:13.114Z,4.80
2019-02-23T10:20:41.883Z,5.00
2019-02-23T10:23:21.564Z,5.10
2019-02-23T10:25:41.695Z,5.20
2019-02-23T10:28:10.380Z,5.30
2019-02-23T10:30:39.017Z,5.30
2019-02-23T10:33:07.699Z,5.30
2019-02-23T10:35:36.487Z,5.40
2019-02-23T10:38:05.631Z,5.60
2019-02-23T10:40:34.316Z,5.80
2019-02-23T10:43:02.984Z,5.80
2019-02-23T10:45:31.619Z,5.80
2019-02-23T10:48:00.260Z,5.90
2019-02-23T10:50:28.952Z,6.00
2019-02-23T10:52:57.659Z,6.10
2019-02-23T10:55:26.291Z,6.20
2019-02-23T10:57:54.959Z,6.40
2019-02-23T11:00:23.827Z,6.50
2019-02-23T11:02:52.721Z,6.40
2019-02-23T11:05:21.408Z,6.50
2019-02-23T11:07:50.326Z,6.60
2019-02-23T11:10:20.119Z,6.60
2019-02-23T11:12:48.763Z,6.90
2019-02-23T11:15:18.296Z,6.70
2019-02-23T11:17:47.004Z,6.90
2019-02-23T11:20:16.618Z,7.10
2019-02-23T11:22:45.411Z,7.30
2019-02-23T11:25:14.251Z,7.60
2019-02-23T11:27:43.184Z,7.80
2019-02-23T11:30:12.126Z,8.60
2019-02-23T11:32:40.914Z,9.20
2019-02-23T11:35:09.973Z,9.40
2019-02-23T11:37:38.722Z,9.50
2019-02-23T11:40:08.771Z,10.00
2019-02-23T11:42:37.667Z,10.70
2019-02-23T11:45:06.608Z,11.20
2019-02-23T11:47:35.494Z,11.90
2019-02-23T11:50:04.459Z,11.00
2019-02-23T11:52:33.143Z,10.90
2019-02-23T11:55:01.856Z,10.40
2019-02-23T11:57:30.557Z,10.70
2019-02-23T11:59:59.340Z,10.60
2019-02-23T12:02:28.020Z,11.70
2019-02-23T12:04:56.635Z,11.50
2019-02-23T12:07:25.325Z,12.10
2019-02-23T12:09:54.253Z,12.10
2019-02-23T12:12:23.182Z,12.10
2019-02-23T12:14:52.118Z,11.80
2019-02-23T12:17:20.852Z,11.40
2019-02-23T12:19:49.588Z,11.20
2019-02-23T12:22:18.250Z,11.60
2019-02-23T12:24:47.116Z,12.70
2019-02-23T12:27:16.201Z,14.40
2019-02-23T12:29:44.912Z,15.90
2019-02-23T12:32:13.567Z,15.80
2019-02-23T12:34:42.240Z,15.70
2019-02-23T12:37:10.866Z,15.30
2019-02-23T12:39:39.504Z,14.10
2019-02-23T12:42:08.435Z,13.70
2019-02-23T12:44:37.091Z,13.80
2019-02-23T12:47:05.717Z,13.80
2019-02-23T12:49:34.387Z,13.80
2019-02-23T12:52:03.039Z,14.70
2019-02-23T12:54:31.747Z,15.80
2019-02-23T12:57:00.512Z,16.30
2019-02-23T12:59:29.200Z,15.10
2019-02-23T13:01:57.861Z,14.40
2019-02-23T13:04:26.571Z,13.80
2019-02-23T13:06:55.278Z,14.90
2019-02-23T13:09:26.397Z,15.20
2019-02-23T13:12:14.500Z,14.60
2019-02-23T13:15:12.051Z,16.10
2019-02-23T13:18:02.866Z,15.50
2019-02-23T13:21:06.612Z,16.40
2019-02-23T13:24:08.099Z,16.90
2019-02-23T13:26:59.464Z,15.60
2019-02-23T13:30:03.545Z,14.20
2019-02-23T13:33:03.780Z,13.90
2019-02-23T13:36:02.056Z,13.30
2019-02-23T13:38:53.187Z,13.00
2019-02-23T13:41:31.888Z,13.30
2019-02-23T13:44:32.187Z,13.70
2019-02-23T13:47:14.414Z,13.00
2019-02-23T13:50:06.965Z,13.00
2019-02-23T13:53:01.364Z,13.10
2019-02-23T13:56:03.011Z,13.50
2019-02-23T13:58:39.518Z,13.50
2019-02-23T14:01:32.713Z,13.80
2019-02-23T14:04:39.448Z,15.60
2019-02-23T14:07:23.617Z,17.00
2019-02-23T14:10:25.914Z,17.00
2019-02-23T14:13:13.723Z,17.80
2019-02-23T14:16:23.063Z,15.90
2019-02-23T14:19:26.004Z,14.90
2019-02-23T14:22:20.398Z,15.60
2019-02-23T14:25:16.027Z,15.60
2019-02-23T14:28:17.487Z,15.40
2019-02-23T14:31:07.988Z,14.70
2019-02-23T14:33:53.881Z,14.90
2019-02-23T14:36:32.175Z,16.50
2019-02-23T14:40:00.591Z,16.10
2019-02-23T14:42:55.972Z,16.70
2019-02-23T14:45:59.382Z,15.70
2019-02-23T14:48:58.070Z,14.90
2019-02-23T14:51:55.021Z,15.70
2019-02-23T14:54:49.159Z,15.70
2019-02-23T14:57:47.777Z,15.90
2019-02-23T15:00:44.227Z,16.00
2019-02-23T15:04:04.643Z,16.60
2019-02-23T15:06:55.123Z,15.50
2019-02-23T15:09:54.414Z,15.20
2019-02-23T15:12:29.461Z,15.00
2019-02-23T15:15:32.974Z,16.30
2019-02-23T15:18:16.063Z,16.70
2019-02-23T15:20:57.176Z,14.70
2019-02-23T15:24:17.867Z,14.40
2019-02-23T15:27:00.840Z,14.70
2019-02-23T15:29:42.318Z,13.70
2019-02-23T15:32:41.639Z,12.60
2019-02-23T15:35:36.131Z,11.60
2019-02-23T15:38:44.175Z,11.60
2019-02-23T15:42:09.827Z,12.30
2019-02-23T15:45:03.085Z,11.50
2019-02-23T15:48:07.603Z,10.40
2019-02-23T15:50:36.275Z,9.80
2019-02-23T15:53:05.282Z,9.60
2019-02-23T15:55:33.950Z,9.50
2019-02-23T15:58:02.604Z,9.40
2019-02-23T16:00:31.327Z,9.20
2019-02-23T16:02:59.979Z,9.10
2019-02-23T16:05:28.802Z,9.00
2019-02-23T16:07:57.558Z,8.90
2019-02-23T16:10:26.200Z,9.00
2019-02-23T16:12:54.856Z,8.80
2019-02-23T16:15:23.492Z,8.60
2019-02-23T16:17:52.168Z,8.60
2019-02-23T16:20:20.853Z,8.60
2019-02-23T16:22:49.599Z,8.50
2019-02-23T16:25:18.309Z,8.40
2019-02-23T16:27:46.965Z,8.30
2019-02-23T16:30:15.635Z,8.30
2019-02-23T16:32:45.339Z,8.20
2019-02-23T16:35:14.235Z,8.10
2019-02-23T16:37:42.880Z,8.00
2019-02-23T16:40:11.543Z,7.90
2019-02-23T16:42:40.652Z,7.80
2019-02-23T16:45:09.419Z,7.80
2019-02-23T16:47:38.332Z,7.70
2019-02-23T16:50:07.096Z,7.60
2019-02-23T16:52:35.901Z,7.50
2019-02-23T16:55:04.775Z,7.30
2019-02-23T16:57:33.556Z,7.20
2019-02-23T17:00:02.311Z,7.20
2019-02-23T17:02:31.333Z,7.10
2019-02-23T17:04:59.983Z,7.00
2019-02-23T17:07:28.624Z,7.00
2019-02-23T17:09:57.251Z,6.90
2019-02-23T17:12:25.963Z,6.90
2019-02-23T17:14:54.612Z,6.80
2019-02-23T17:17:23.416Z,6.70
2019-02-23T17:19:52.422Z,6.60
2019-02-23T17:22:21.266Z,6.60
2019-02-23T17:24:50.011Z,6.60
2019-02-23T17:27:18.768Z,6.50
2019-02-23T17:29:47.502Z,6.50
2019-02-23T17:32:16.295Z,6.50
2019-02-23T17:34:44.992Z,6.40
2019-02-23T17:37:13.765Z,6.40
2019-02-23T17:39:42.516Z,6.30
2019-02-23T17:42:11.621Z,6.30
2019-02-23T17:44:40.245Z,6.30
2019-02-23T17:47:08.932Z,6.30
2019-02-23T17:49:37.841Z,6.20
2019-02-23T17:52:06.773Z,6.10
2019-02-23T17:54:35.412Z,6.10
2019-02-23T17:57:04.069Z,6.10
2019-02-23T17:59:32.739Z,6.10
2019-02-23T18:02:01.671Z,6.00
2019-02-23T18:04:30.459Z,6.00
2019-02-23T18:06:59.184Z,6.00
2019-02-23T18:09:27.912Z,6.00
2019-02-23T18:11:56.554Z,6.00
2019-02-23T18:14:25.754Z,5.90
2019-02-23T18:16:54.425Z,5.90
2019-02-23T18:19:23.087Z,5.90
2019-02-23T18:21:51.781Z,5.80
2019-02-23T18:24:20.440Z,5.70
2019-02-23T18:26:49.078Z,5.70
2019-02-23T18:29:17.823Z,5.70
2019-02-23T18:31:46.557Z,5.70
2019-02-23T18:34:15.255Z,5.60
2019-02-23T18:36:43.943Z,5.60
2019-02-23T18:39:12.683Z,5.60
2019-02-23T18:41:41.303Z,5.60
2019-02-23T18:44:09.964Z,5.50
2019-02-23T18:46:38.631Z,5.50
2019-02-23T18:49:07.371Z,5.50
2019-02-23T18:51:36.756Z,5.40
2019-02-23T18:54:05.456Z,5.40
2019-02-23T18:56:34.104Z,5.40
2019-02-23T18:59:02.824Z,5.40
2019-02-23T19:01:31.474Z,5.40
2019-02-23T19:04:00.143Z,5.40
2019-02-23T19:06:28.840Z,5.40
2019-02-23T19:08:57.549Z,5.40
2019-02-23T19:11:26.223Z,5.40
2019-02-23T19:13:54.867Z,5.30
2019-02-23T19:16:23.883Z,5.40
2019-02-23T19:18:52.577Z,5.40
2019-02-23T19:21:21.340Z,5.30
2019-02-23T19:23:50.270Z,5.30
2019-02-23T19:26:18.963Z,5.30
2019-02-23T19:28:47.638Z,5.40
2019-02-23T19:31:16.268Z,5.30
2019-02-23T19:33:45.041Z,5.30
2019-02-23T19:36:13.696Z,5.30
2019-02-23T19:38:42.507Z,5.20
2019-02-23T19:41:11.139Z,5.20
2019-02-23T19:43:39.838Z,5.20
2019-02-23T19:46:09.515Z,5.20
2019-02-23T19:48:38.396Z,5.30
2019-02-23T19:51:08.884Z,5.40
2019-02-23T19:53:38.083Z,5.40
2019-02-23T19:56:06.727Z,5.30
2019-02-23T19:58:35.395Z,5.30
2019-02-23T20:01:04.051Z,5.30
2019-02-23T20:03:32.766Z,5.20
2019-02-23T20:06:01.507Z,5.20
2019-02-23T20:08:30.151Z,5.10
2019-02-23T20:10:58.866Z,5.10
2019-02-23T20:13:27.738Z,5.10
2019-02-23T20:15:56.419Z,5.00
2019-02-23T20:18:25.139Z,5.00
2019-02-23T20:20:53.867Z,4.90
2019-02-23T20:23:22.567Z,5.00
2019-02-23T20:25:51.260Z,5.00
2019-02-23T20:28:19.999Z,4.90
2019-02-23T20:30:48.780Z,4.90
2019-02-23T20:33:19.057Z,4.80
2019-02-23T20:35:47.863Z,4.80
2019-02-23T20:38:16.880Z,4.80
2019-02-23T20:40:45.594Z,4.80
2019-02-23T20:43:14.219Z,4.80
2019-02-23T20:45:42.880Z,4.80
2019-02-23T20:48:11.594Z,4.80
2019-02-23T20:50:40.365Z,4.80
2019-02-23T20:53:09.615Z,4.80
2019-02-23T20:55:38.305Z,4.80
2019-02-23T20:58:07.023Z,4.80
2019-02-23T21:00:35.754Z,4.80
2019-02-23T21:03:04.386Z,4.80
2019-02-23T21:05:33.149Z,4.70
2019-02-23T21:08:01.779Z,4.70
2019-02-23T21:10:30.419Z,4.60
2019-02-23T21:12:59.390Z,4.50
2019-02-23T21:15:28.035Z,4.60
2019-02-23T21:17:57.166Z,4.60
2019-02-23T21:20:26.565Z,4.50
2019-02-23T21:22:55.991Z,4.40
2019-02-23T21:25:25.242Z,4.40
2019-02-23T21:27:53.942Z,4.40
2019-02-23T21:30:23.517Z,4.40
2019-02-23T21:32:52.174Z,4.40
2019-02-23T21:35:20.863Z,4.40
2019-02-23T21:37:49.491Z,4.30
2019-02-23T21:40:18.496Z,4.30
2019-02-23T21:42:47.129Z,4.30
2019-02-23T21:45:17.171Z,4.40
2019-02-23T21:47:45.845Z,4.40
2019-02-23T21:50:14.581Z,4.40
2019-02-23T21:52:43.543Z,4.40
2019-02-23T21:55:12.307Z,4.30
2019-02-23T21:57:41.012Z,4.40
2019-02-23T22:00:09.931Z,4.30
2019-02-23T22:02:38.781Z,4.30
2019-02-23T22:05:12.469Z,4.20
2019-02-23T22:07:37.936Z,4.20
2019-02-23T22:10:06.788Z,4.20
2019-02-23T22:12:35.872Z,4.10
2019-02-23T22:15:05.020Z,4.00
2019-02-23T22:17:33.761Z,4.00
2019-02-23T22:20:02.539Z,4.00
2019-02-23T22:22:31.192Z,4.00
2019-02-23T22:24:59.892Z,4.00
2019-02-23T22:27:31.354Z,4.00
2019-02-23T22:29:59.099Z,3.90
2019-02-23T22:32:27.832Z,3.90
2019-02-23T22:34:56.557Z,3.90
2019-02-23T22:37:25.200Z,3.90
2019-02-23T22:39:53.853Z,4.00
2019-02-23T22:42:22.580Z,4.00
2019-02-23T22:44:51.294Z,4.00
2019-02-23T22:47:19.928Z,4.00
2019-02-23T22:49:48.753Z,3.90
2019-02-23T22:52:17.591Z,3.90
2019-02-23T22:54:46.222Z,3.90
2019-02-23T22:57:14.944Z,3.90
2019-02-23T22:59:43.596Z,3.90
2019-02-23T23:02:12.360Z,3.80
2019-02-23T23:04:41.096Z,3.80
2019-02-23T23:07:09.801Z,3.80
2019-02-23T23:09:38.699Z,3.80
2019-02-23T23:12:07.541Z,3.80
2019-02-23T23:14:36.461Z,3.80
2019-02-23T23:17:05.209Z,3.80
2019-02-23T23:19:34.106Z,3.80
2019-02-23T23:22:02.764Z,3.80
2019-02-23T23:24:31.487Z,3.80
2019-02-23T23:27:00.260Z,3.80
2019-02-23T23:29:31.975Z,3.80
2019-02-23T23:32:00.651Z,3.80
2019-02-23T23:34:29.635Z,3.80
2019-02-23T23:36:58.361Z,3.80
2019-02-23T23:39:27.267Z,3.80
2019-02-23T23:41:55.905Z,3.80
2019-02-23T23:44:24.627Z,3.80
2019-02-23T23:46:54.015Z,3.80
2019-02-23T23:49:22.788Z,3.80
2019-02-23T23:51:51.488Z,3.80
2019-02-23T23:54:20.133Z,3.70
2019-02-23T23:56:48.891Z,3.70
2019-02-23T23:59:17.552Z,3.70
